sensor_id;sensor_type;location;lat;lon;timestamp;pressure;altitude;pressure_sealevel;temperature;humidity
59829;BME280;45708;51.848;107.620;2024-01-27T00:04:46;96210.13;;;-25.66;64.00
59829;BME280;45708;51.848;107.620;2024-01-27T00:09:47;96249.44;;;-25.46;64.26
59829;BME280;45708;51.848;107.620;2024-01-27T00:14:48;96229.38;;;-25.57;64.26
59829;BME280;45708;51.848;107.620;2024-01-27T00:19:49;96257.75;;;-25.46;64.20
59829;BME280;45708;51.848;107.620;2024-01-27T00:24:50;96231.09;;;-25.51;64.35
59829;BME280;45708;51.848;107.620;2024-01-27T00:29:51;96244.69;;;-25.31;64.40
59829;BME280;45708;51.848;107.620;2024-01-27T00:34:52;96248.09;;;-25.24;64.34
59829;BME280;45708;51.848;107.620;2024-01-27T00:39:53;96268.16;;;-25.15;64.24
59829;BME280;45708;51.848;107.620;2024-01-27T00:44:54;96264.72;;;-25.23;64.51
59829;BME280;45708;51.848;107.620;2024-01-27T00:49:55;96274.03;;;-25.10;64.12
59829;BME280;45708;51.848;107.620;2024-01-27T00:54:56;96279.13;;;-25.03;64.61
59829;BME280;45708;51.848;107.620;2024-01-27T00:59:58;96285.53;;;-24.53;64.67
59829;BME280;45708;51.848;107.620;2024-01-27T01:04:59;96279.59;;;-23.81;64.74
59829;BME280;45708;51.848;107.620;2024-01-27T01:09:59;96282.97;;;-23.73;63.61
59829;BME280;45708;51.848;107.620;2024-01-27T01:15:00;96269.78;;;-23.51;63.97
59829;BME280;45708;51.848;107.620;2024-01-27T01:20:05;96278.75;;;-22.28;63.89
59829;BME280;45708;51.848;107.620;2024-01-27T01:25:06;96268.63;;;-20.53;63.06
59829;BME280;45708;51.848;107.620;2024-01-27T01:30:07;96288.59;;;-20.28;61.82
59829;BME280;45708;51.848;107.620;2024-01-27T01:35:10;96265.50;;;-21.34;61.93
59829;BME280;45708;51.848;107.620;2024-01-27T01:40:11;96263.63;;;-20.65;61.43
59829;BME280;45708;51.848;107.620;2024-01-27T01:45:12;96244.59;;;-21.70;61.66
59829;BME280;45708;51.848;107.620;2024-01-27T01:50:12;96282.00;;;-22.58;62.20
59829;BME280;45708;51.848;107.620;2024-01-27T01:55:13;96285.06;;;-23.14;62.38
59829;BME280;45708;51.848;107.620;2024-01-27T02:00:15;96274.81;;;-23.45;62.85
59829;BME280;45708;51.848;107.620;2024-01-27T02:05:16;96258.13;;;-23.49;63.23
59829;BME280;45708;51.848;107.620;2024-01-27T02:10:18;96269.13;;;-23.25;63.27
59829;BME280;45708;51.848;107.620;2024-01-27T02:15:19;96184.69;;;-23.72;63.25
59829;BME280;45708;51.848;107.620;2024-01-27T02:20:20;96238.19;;;-23.43;63.16
59829;BME280;45708;51.848;107.620;2024-01-27T02:25:21;96261.69;;;-23.16;63.06
59829;BME280;45708;51.848;107.620;2024-01-27T02:30:21;96265.03;;;-23.16;62.92
59829;BME280;45708;51.848;107.620;2024-01-27T02:35:22;96253.38;;;-23.15;63.54
59829;BME280;45708;51.848;107.620;2024-01-27T02:40:23;96240.13;;;-23.02;63.43
59829;BME280;45708;51.848;107.620;2024-01-27T02:45:24;96236.94;;;-22.61;63.53
59829;BME280;45708;51.848;107.620;2024-01-27T02:50:25;96252.03;;;-22.25;63.42
59829;BME280;45708;51.848;107.620;2024-01-27T02:55:25;96239.50;;;-22.28;62.65
59829;BME280;45708;51.848;107.620;2024-01-27T03:00:26;96231.16;;;-22.28;62.59
59829;BME280;45708;51.848;107.620;2024-01-27T03:05:27;96221.19;;;-21.98;63.25
59829;BME280;45708;51.848;107.620;2024-01-27T03:10:28;96226.19;;;-21.53;62.78
59829;BME280;45708;51.848;107.620;2024-01-27T03:15:29;96225.38;;;-21.59;62.67
59829;BME280;45708;51.848;107.620;2024-01-27T03:20:30;96235.38;;;-21.28;63.05
59829;BME280;45708;51.848;107.620;2024-01-27T03:25:31;96239.47;;;-21.03;62.83
59829;BME280;45708;51.848;107.620;2024-01-27T03:30:31;96191.81;;;-21.15;62.25
59829;BME280;45708;51.848;107.620;2024-01-27T03:35:32;96218.47;;;-20.71;62.77
59829;BME280;45708;51.848;107.620;2024-01-27T03:40:33;96232.34;;;-20.03;63.14
59829;BME280;45708;51.848;107.620;2024-01-27T03:45:34;96231.22;;;-19.59;62.45
59829;BME280;45708;51.848;107.620;2024-01-27T03:50:35;96212.47;;;-19.29;62.41
59829;BME280;45708;51.848;107.620;2024-01-27T03:55:35;96229.03;;;-19.05;62.29
59829;BME280;45708;51.848;107.620;2024-01-27T04:00:36;96210.31;;;-18.77;62.63
59829;BME280;45708;51.848;107.620;2024-01-27T04:05:37;96210.19;;;-18.68;61.85
59829;BME280;45708;51.848;107.620;2024-01-27T04:10:38;96196.72;;;-18.67;62.09
59829;BME280;45708;51.848;107.620;2024-01-27T04:15:39;96197.31;;;-18.48;62.54
59829;BME280;45708;51.848;107.620;2024-01-27T04:20:40;96173.94;;;-18.59;62.78
59829;BME280;45708;51.848;107.620;2024-01-27T04:25:41;96194.47;;;-18.22;62.40
59829;BME280;45708;51.848;107.620;2024-01-27T04:30:42;96196.84;;;-18.11;61.93
59829;BME280;45708;51.848;107.620;2024-01-27T04:35:43;96182.41;;;-18.02;61.68
59829;BME280;45708;51.848;107.620;2024-01-27T04:40:43;96177.25;;;-17.93;61.75
59829;BME280;45708;51.848;107.620;2024-01-27T04:45:44;96151.31;;;-18.01;62.13
59829;BME280;45708;51.848;107.620;2024-01-27T04:50:48;96172.91;;;-17.81;61.99
59829;BME280;45708;51.848;107.620;2024-01-27T04:55:49;96164.44;;;-17.79;61.62
59829;BME280;45708;51.848;107.620;2024-01-27T05:00:50;96166.69;;;-17.65;62.00
59829;BME280;45708;51.848;107.620;2024-01-27T05:05:50;96163.28;;;-17.61;61.29
59829;BME280;45708;51.848;107.620;2024-01-27T05:10:51;96152.97;;;-17.49;61.07
59829;BME280;45708;51.848;107.620;2024-01-27T05:15:52;96136.09;;;-17.47;61.30
59829;BME280;45708;51.848;107.620;2024-01-27T05:20:53;96152.13;;;-17.00;60.93
59829;BME280;45708;51.848;107.620;2024-01-27T05:25:54;96124.03;;;-16.85;61.13
59829;BME280;45708;51.848;107.620;2024-01-27T05:30:55;96122.97;;;-16.73;60.88
59829;BME280;45708;51.848;107.620;2024-01-27T05:35:56;96138.69;;;-16.20;61.00
59829;BME280;45708;51.848;107.620;2024-01-27T05:40:56;96140.00;;;-16.04;60.65
59829;BME280;45708;51.848;107.620;2024-01-27T05:45:57;96128.72;;;-15.89;60.27
59829;BME280;45708;51.848;107.620;2024-01-27T05:51:00;96131.91;;;-15.81;60.22
59829;BME280;45708;51.848;107.620;2024-01-27T05:56:03;96127.66;;;-15.79;60.41
59829;BME280;45708;51.848;107.620;2024-01-27T06:01:04;96128.16;;;-15.66;60.25
59829;BME280;45708;51.848;107.620;2024-01-27T06:06:05;96093.88;;;-15.78;59.89
59829;BME280;45708;51.848;107.620;2024-01-27T06:11:06;96116.53;;;-15.40;60.19
59829;BME280;45708;51.848;107.620;2024-01-27T06:16:08;96112.41;;;-15.11;59.21
59829;BME280;45708;51.848;107.620;2024-01-27T06:21:10;96092.44;;;-14.91;59.46
59829;BME280;45708;51.848;107.620;2024-01-27T06:26:13;96125.06;;;-14.79;58.45
59829;BME280;45708;51.848;107.620;2024-01-27T06:31:15;96119.06;;;-15.07;60.04
59829;BME280;45708;51.848;107.620;2024-01-27T06:36:16;96127.53;;;-15.08;59.08
59829;BME280;45708;51.848;107.620;2024-01-27T06:41:17;96141.16;;;-15.12;59.89
59829;BME280;45708;51.848;107.620;2024-01-27T06:46:18;96124.25;;;-15.46;58.84
59829;BME280;45708;51.848;107.620;2024-01-27T06:51:19;96128.34;;;-15.73;59.83
59829;BME280;45708;51.848;107.620;2024-01-27T06:56:19;96134.59;;;-15.89;58.73
59829;BME280;45708;51.848;107.620;2024-01-27T07:01:20;96120.34;;;-16.30;59.52
59829;BME280;45708;51.848;107.620;2024-01-27T07:06:22;96132.44;;;-16.44;59.29
59829;BME280;45708;51.848;107.620;2024-01-27T07:11:23;96134.38;;;-16.55;59.56
59829;BME280;45708;51.848;107.620;2024-01-27T07:16:24;96134.47;;;-16.62;59.37
59829;BME280;45708;51.848;107.620;2024-01-27T07:21:25;96119.38;;;-16.65;59.38
59829;BME280;45708;51.848;107.620;2024-01-27T07:26:26;96114.66;;;-16.40;59.42
59829;BME280;45708;51.848;107.620;2024-01-27T07:31:26;96108.50;;;-16.28;59.04
59829;BME280;45708;51.848;107.620;2024-01-27T07:36:27;96126.44;;;-16.00;58.86
59829;BME280;45708;51.848;107.620;2024-01-27T07:41:28;96133.41;;;-15.73;58.77
59829;BME280;45708;51.848;107.620;2024-01-27T07:46:29;96144.13;;;-15.61;59.21
59829;BME280;45708;51.848;107.620;2024-01-27T07:51:30;96138.22;;;-15.63;58.22
59829;BME280;45708;51.848;107.620;2024-01-27T07:56:31;96137.34;;;-15.61;58.82
59829;BME280;45708;51.848;107.620;2024-01-27T08:01:31;96159.28;;;-15.60;58.81
59829;BME280;45708;51.848;107.620;2024-01-27T08:06:32;96160.44;;;-15.75;58.51
59829;BME280;45708;51.848;107.620;2024-01-27T08:11:33;96150.06;;;-16.00;58.69
59829;BME280;45708;51.848;107.620;2024-01-27T08:16:34;96150.16;;;-16.06;59.17
59829;BME280;45708;51.848;107.620;2024-01-27T08:21:35;96160.44;;;-16.12;58.89
59829;BME280;45708;51.848;107.620;2024-01-27T08:26:36;96155.03;;;-16.35;58.81
59829;BME280;45708;51.848;107.620;2024-01-27T08:31:36;96168.38;;;-16.28;58.75
59829;BME280;45708;51.848;107.620;2024-01-27T08:36:37;96183.50;;;-16.27;59.12
59829;BME280;45708;51.848;107.620;2024-01-27T08:41:38;96176.09;;;-16.35;58.97
59829;BME280;45708;51.848;107.620;2024-01-27T08:46:39;96178.09;;;-16.50;58.79
59829;BME280;45708;51.848;107.620;2024-01-27T08:51:39;96185.97;;;-16.66;59.33
59829;BME280;45708;51.848;107.620;2024-01-27T08:56:41;96191.22;;;-16.73;59.49
59829;BME280;45708;51.848;107.620;2024-01-27T09:01:42;96174.00;;;-16.99;58.96
59829;BME280;45708;51.848;107.620;2024-01-27T09:06:43;96195.81;;;-16.95;59.22
59829;BME280;45708;51.848;107.620;2024-01-27T09:11:45;96202.78;;;-17.08;59.20
59829;BME280;45708;51.848;107.620;2024-01-27T09:16:46;96198.75;;;-17.18;59.42
59829;BME280;45708;51.848;107.620;2024-01-27T09:21:46;96217.97;;;-17.09;59.56
59829;BME280;45708;51.848;107.620;2024-01-27T09:26:47;96212.97;;;-17.12;59.54
59829;BME280;45708;51.848;107.620;2024-01-27T09:31:48;96223.06;;;-17.12;59.54
59829;BME280;45708;51.848;107.620;2024-01-27T09:36:49;96194.75;;;-17.30;59.58
59829;BME280;45708;51.848;107.620;2024-01-27T09:41:50;96224.84;;;-17.17;59.25
59829;BME280;45708;51.848;107.620;2024-01-27T09:46:51;96229.97;;;-17.20;60.00
59829;BME280;45708;51.848;107.620;2024-01-27T09:51:52;96230.06;;;-17.28;59.22
59829;BME280;45708;51.848;107.620;2024-01-27T09:56:54;96231.91;;;-17.38;59.42
59829;BME280;45708;51.848;107.620;2024-01-27T10:01:58;96221.94;;;-17.47;60.02
59829;BME280;45708;51.848;107.620;2024-01-27T10:06:59;96231.09;;;-17.38;59.86
59829;BME280;45708;51.848;107.620;2024-01-27T10:12:01;96247.09;;;-17.39;59.98
59829;BME280;45708;51.848;107.620;2024-01-27T10:17:02;96247.06;;;-17.38;60.08
59829;BME280;45708;51.848;107.620;2024-01-27T10:22:03;96262.97;;;-17.33;60.08
59829;BME280;45708;51.848;107.620;2024-01-27T10:27:04;96245.53;;;-17.48;59.87
59829;BME280;45708;51.848;107.620;2024-01-27T10:32:09;96263.09;;;-17.40;60.29
59829;BME280;45708;51.848;107.620;2024-01-27T10:37:12;96266.41;;;-17.37;59.87
59829;BME280;45708;51.848;107.620;2024-01-27T10:42:13;96241.34;;;-17.49;59.81
59829;BME280;45708;51.848;107.620;2024-01-27T10:47:16;96275.50;;;-17.27;60.11
59829;BME280;45708;51.848;107.620;2024-01-27T10:52:21;96275.38;;;-17.17;60.06
59829;BME280;45708;51.848;107.620;2024-01-27T10:57:24;96236.00;;;-17.31;60.14
59829;BME280;45708;51.848;107.620;2024-01-27T11:02:25;96267.81;;;-17.19;60.24
59829;BME280;45708;51.848;107.620;2024-01-27T11:07:31;96253.72;;;-17.34;60.48
59829;BME280;45708;51.848;107.620;2024-01-27T11:12:32;96258.81;;;-17.35;60.03
59829;BME280;45708;51.848;107.620;2024-01-27T11:17:41;96292.25;;;-17.19;60.56
59829;BME280;45708;51.848;107.620;2024-01-27T11:22:42;96288.84;;;-17.18;60.11
59829;BME280;45708;51.848;107.620;2024-01-27T11:27:44;96292.25;;;-17.23;60.28
59829;BME280;45708;51.848;107.620;2024-01-27T11:32:45;96293.97;;;-17.21;60.35
59829;BME280;45708;51.848;107.620;2024-01-27T11:37:46;96282.25;;;-17.29;60.14
59829;BME280;45708;51.848;107.620;2024-01-27T11:43:02;96297.31;;;-17.23;60.40
59829;BME280;45708;51.848;107.620;2024-01-27T11:48:03;96285.59;;;-17.27;60.71
59829;BME280;45708;51.848;107.620;2024-01-27T11:53:04;96303.81;;;-17.06;60.79
59829;BME280;45708;51.848;107.620;2024-01-27T11:58:05;96296.34;;;-17.14;60.58
59829;BME280;45708;51.848;107.620;2024-01-27T12:03:07;96305.41;;;-16.99;60.73
59829;BME280;45708;51.848;107.620;2024-01-27T12:08:08;96322.06;;;-16.89;60.52
59829;BME280;45708;51.848;107.620;2024-01-27T12:13:09;96327.16;;;-16.92;60.52
59829;BME280;45708;51.848;107.620;2024-01-27T12:18:10;96337.38;;;-16.98;60.87
59829;BME280;45708;51.848;107.620;2024-01-27T12:23:11;96328.84;;;-16.91;60.89
59829;BME280;45708;51.848;107.620;2024-01-27T12:28:12;96324.72;;;-16.97;61.03
59829;BME280;45708;51.848;107.620;2024-01-27T12:33:13;96338.09;;;-16.90;61.13
59829;BME280;45708;51.848;107.620;2024-01-27T12:38:13;96349.00;;;-16.88;60.67
59829;BME280;45708;51.848;107.620;2024-01-27T12:43:14;96343.16;;;-16.92;61.06
59829;BME280;45708;51.848;107.620;2024-01-27T12:48:17;96334.03;;;-17.02;61.32
59829;BME280;45708;51.848;107.620;2024-01-27T12:53:18;96340.78;;;-17.02;61.21
59829;BME280;45708;51.848;107.620;2024-01-27T12:58:19;96347.56;;;-17.04;61.43
59829;BME280;45708;51.848;107.620;2024-01-27T13:03:20;96305.84;;;-17.30;61.04
59829;BME280;45708;51.848;107.620;2024-01-27T13:08:21;96350.22;;;-17.12;61.38
59829;BME280;45708;51.848;107.620;2024-01-27T13:13:22;96341.00;;;-17.14;61.35
59829;BME280;45708;51.848;107.620;2024-01-27T13:18:22;96356.16;;;-17.14;61.65
59829;BME280;45708;51.848;107.620;2024-01-27T13:23:23;96360.56;;;-17.30;61.17
59829;BME280;45708;51.848;107.620;2024-01-27T13:28:24;96343.16;;;-17.50;61.47
59829;BME280;45708;51.848;107.620;2024-01-27T13:33:26;96368.50;;;-17.56;61.35
59829;BME280;45708;51.848;107.620;2024-01-27T13:38:27;96343.47;;;-17.71;61.98
59829;BME280;45708;51.848;107.620;2024-01-27T13:43:28;96367.13;;;-17.77;61.88
59829;BME280;45708;51.848;107.620;2024-01-27T13:48:29;96368.84;;;-17.83;62.07
59829;BME280;45708;51.848;107.620;2024-01-27T13:53:31;96359.81;;;-18.00;62.17
59829;BME280;45708;51.848;107.620;2024-01-27T13:58:32;96363.25;;;-18.07;61.38
59829;BME280;45708;51.848;107.620;2024-01-27T14:03:33;96362.59;;;-18.24;62.11
59829;BME280;45708;51.848;107.620;2024-01-27T14:08:34;96346.81;;;-18.44;62.08
59829;BME280;45708;51.848;107.620;2024-01-27T14:13:35;96347.69;;;-18.46;61.92
59829;BME280;45708;51.848;107.620;2024-01-27T14:18:36;96328.50;;;-18.59;62.32
59829;BME280;45708;51.848;107.620;2024-01-27T14:23:37;96369.50;;;-18.44;61.83
59829;BME280;45708;51.848;107.620;2024-01-27T14:28:40;96375.38;;;-18.42;61.66
59829;BME280;45708;51.848;107.620;2024-01-27T14:33:41;96362.88;;;-18.52;62.23
59829;BME280;45708;51.848;107.620;2024-01-27T14:38:42;96357.84;;;-18.55;62.59
59829;BME280;45708;51.848;107.620;2024-01-27T14:43:43;96366.31;;;-18.59;62.08
59829;BME280;45708;51.848;107.620;2024-01-27T14:48:44;96344.72;;;-18.87;62.54
59829;BME280;45708;51.848;107.620;2024-01-27T14:53:45;96348.97;;;-18.92;62.19
59829;BME280;45708;51.848;107.620;2024-01-27T14:58:45;96354.84;;;-18.92;62.31
59829;BME280;45708;51.848;107.620;2024-01-27T15:03:46;96341.56;;;-19.12;62.96
59829;BME280;45708;51.848;107.620;2024-01-27T15:08:47;96362.53;;;-19.10;62.26
59829;BME280;45708;51.848;107.620;2024-01-27T15:13:48;96351.72;;;-19.23;62.93
59829;BME280;45708;51.848;107.620;2024-01-27T15:18:49;96329.97;;;-19.33;63.31
59829;BME280;45708;51.848;107.620;2024-01-27T15:23:50;96351.78;;;-19.30;63.30
59829;BME280;45708;51.848;107.620;2024-01-27T15:28:51;96343.41;;;-19.34;62.93
59829;BME280;45708;51.848;107.620;2024-01-27T15:33:52;96360.94;;;-19.25;63.24
59829;BME280;45708;51.848;107.620;2024-01-27T15:38:53;96368.56;;;-19.32;63.13
59829;BME280;45708;51.848;107.620;2024-01-27T15:43:54;96377.06;;;-19.50;62.62
59829;BME280;45708;51.848;107.620;2024-01-27T15:48:54;96358.72;;;-19.61;62.68
59829;BME280;45708;51.848;107.620;2024-01-27T15:53:55;96349.50;;;-19.61;63.07
59829;BME280;45708;51.848;107.620;2024-01-27T15:58:57;96390.50;;;-19.51;63.15
59829;BME280;45708;51.848;107.620;2024-01-27T16:03:58;96349.56;;;-19.75;62.74
59829;BME280;45708;51.848;107.620;2024-01-27T16:08:59;96378.00;;;-19.65;63.50
59829;BME280;45708;51.848;107.620;2024-01-27T16:14:00;96368.78;;;-19.67;63.09
59829;BME280;45708;51.848;107.620;2024-01-27T16:19:01;96361.31;;;-19.77;62.99
59829;BME280;45708;51.848;107.620;2024-01-27T16:24:02;96387.94;;;-19.41;63.10
59829;BME280;45708;51.848;107.620;2024-01-27T16:29:03;96393.75;;;-19.34;63.33
59829;BME280;45708;51.848;107.620;2024-01-27T16:34:03;96380.38;;;-19.39;63.90
59829;BME280;45708;51.848;107.620;2024-01-27T16:39:04;96368.63;;;-19.46;63.91
59829;BME280;45708;51.848;107.620;2024-01-27T16:44:05;96384.56;;;-19.40;64.23
59829;BME280;45708;51.848;107.620;2024-01-27T16:49:06;96381.22;;;-19.42;63.42
59829;BME280;45708;51.848;107.620;2024-01-27T16:54:07;96358.59;;;-19.49;63.79
59829;BME280;45708;51.848;107.620;2024-01-27T16:59:08;96373.66;;;-19.40;63.87
59829;BME280;45708;51.848;107.620;2024-01-27T17:04:08;96403.06;;;-19.50;63.58
59829;BME280;45708;51.848;107.620;2024-01-27T17:09:09;96403.06;;;-19.51;64.00
59829;BME280;45708;51.848;107.620;2024-01-27T17:14:10;96400.59;;;-19.54;64.21
59829;BME280;45708;51.848;107.620;2024-01-27T17:19:11;96413.22;;;-19.65;63.73
59829;BME280;45708;51.848;107.620;2024-01-27T17:24:12;96419.09;;;-19.69;64.28
59829;BME280;45708;51.848;107.620;2024-01-27T17:29:13;96406.59;;;-19.81;64.30
59829;BME280;45708;51.848;107.620;2024-01-27T17:34:14;96402.38;;;-19.75;63.88
59829;BME280;45708;51.848;107.620;2024-01-27T17:39:15;96389.75;;;-19.68;64.58
59829;BME280;45708;51.848;107.620;2024-01-27T17:44:15;96401.50;;;-19.61;64.57
59829;BME280;45708;51.848;107.620;2024-01-27T17:49:16;96404.81;;;-19.55;64.51
59829;BME280;45708;51.848;107.620;2024-01-27T17:54:17;96414.03;;;-19.55;64.51
59829;BME280;45708;51.848;107.620;2024-01-27T17:59:18;96403.19;;;-19.71;63.88
59829;BME280;45708;51.848;107.620;2024-01-27T18:04:19;96414.09;;;-19.74;64.70
59829;BME280;45708;51.848;107.620;2024-01-27T18:09:19;96414.94;;;-19.73;64.87
59829;BME280;45708;51.848;107.620;2024-01-27T18:14:20;96411.56;;;-19.71;64.61
59829;BME280;45708;51.848;107.620;2024-01-27T18:19:21;96400.66;;;-19.69;64.38
59829;BME280;45708;51.848;107.620;2024-01-27T18:24:22;96416.47;;;-19.49;64.92
59829;BME280;45708;51.848;107.620;2024-01-27T18:29:23;96413.06;;;-19.37;64.88
59829;BME280;45708;51.848;107.620;2024-01-27T18:34:24;96415.53;;;-19.30;64.63
59829;BME280;45708;51.848;107.620;2024-01-27T18:39:24;96413.63;;;-18.91;64.35
59829;BME280;45708;51.848;107.620;2024-01-27T18:44:25;96348.25;;;-19.06;65.07
59829;BME280;45708;51.848;107.620;2024-01-27T18:49:26;96404.59;;;-18.23;65.49
59829;BME280;45708;51.848;107.620;2024-01-27T18:54:27;96415.94;;;-17.82;64.51
59829;BME280;45708;51.848;107.620;2024-01-27T18:59:28;96416.41;;;-17.51;64.95
59829;BME280;45708;51.848;107.620;2024-01-27T19:04:28;96408.66;;;-17.38;65.29
59829;BME280;45708;51.848;107.620;2024-01-27T19:09:29;96405.09;;;-17.21;65.38
59829;BME280;45708;51.848;107.620;2024-01-27T19:14:30;96395.81;;;-17.19;65.47
59829;BME280;45708;51.848;107.620;2024-01-27T19:19:31;96392.41;;;-17.18;65.04
59829;BME280;45708;51.848;107.620;2024-01-27T19:24:32;96392.22;;;-17.06;65.37
59829;BME280;45708;51.848;107.620;2024-01-27T19:29:32;96383.66;;;-16.95;65.28
59829;BME280;45708;51.848;107.620;2024-01-27T19:34:33;96383.53;;;-16.87;65.62
59829;BME280;45708;51.848;107.620;2024-01-27T19:39:34;96378.69;;;-17.65;65.02
59829;BME280;45708;51.848;107.620;2024-01-27T19:44:37;96378.06;;;-18.58;65.65
59829;BME280;45708;51.848;107.620;2024-01-27T19:49:38;96410.38;;;-19.09;65.14
59829;BME280;45708;51.848;107.620;2024-01-27T19:54:39;96408.16;;;-19.62;65.89
59829;BME280;45708;51.848;107.620;2024-01-27T19:59:40;96384.94;;;-20.17;65.32
59829;BME280;45708;51.848;107.620;2024-01-27T20:04:40;96405.09;;;-20.43;65.94
59829;BME280;45708;51.848;107.620;2024-01-27T20:09:41;96390.91;;;-20.72;65.27
59829;BME280;45708;51.848;107.620;2024-01-27T20:14:42;96401.78;;;-20.88;65.64
59829;BME280;45708;51.848;107.620;2024-01-27T20:19:43;96398.44;;;-21.17;65.73
59829;BME280;45708;51.848;107.620;2024-01-27T20:24:44;96387.56;;;-21.36;65.72
59829;BME280;45708;51.848;107.620;2024-01-27T20:29:44;96401.75;;;-21.47;65.65
59829;BME280;45708;51.848;107.620;2024-01-27T20:34:45;96402.53;;;-21.70;65.67
59829;BME280;45708;51.848;107.620;2024-01-27T20:39:46;96421.69;;;-21.84;65.55
59829;BME280;45708;51.848;107.620;2024-01-27T20:44:47;96424.19;;;-21.90;65.66
59829;BME280;45708;51.848;107.620;2024-01-27T20:49:47;96415.81;;;-21.95;65.74
59829;BME280;45708;51.848;107.620;2024-01-27T20:54:48;96419.09;;;-22.02;65.58
59829;BME280;45708;51.848;107.620;2024-01-27T20:59:49;96408.22;;;-22.18;65.79
59829;BME280;45708;51.848;107.620;2024-01-27T21:04:50;96405.66;;;-22.26;66.16
59829;BME280;45708;51.848;107.620;2024-01-27T21:09:51;96415.75;;;-22.13;65.99
59829;BME280;45708;51.848;107.620;2024-01-27T21:14:53;96439.16;;;-22.08;65.93
59829;BME280;45708;51.848;107.620;2024-01-27T21:19:54;96450.00;;;-22.12;66.05
59829;BME280;45708;51.848;107.620;2024-01-27T21:24:54;96435.69;;;-22.38;65.97
59829;BME280;45708;51.848;107.620;2024-01-27T21:29:55;96396.19;;;-22.75;66.13
59829;BME280;45708;51.848;107.620;2024-01-27T21:34:57;96453.16;;;-22.44;65.86
59829;BME280;45708;51.848;107.620;2024-01-27T21:39:59;96459.78;;;-22.51;65.83
59829;BME280;45708;51.848;107.620;2024-01-27T21:45:00;96437.13;;;-22.69;66.06
59829;BME280;45708;51.848;107.620;2024-01-27T21:50:01;96434.59;;;-22.73;66.30
59829;BME280;45708;51.848;107.620;2024-01-27T21:55:02;96457.16;;;-22.66;66.17
59829;BME280;45708;51.848;107.620;2024-01-27T22:00:03;96445.50;;;-22.62;65.76
59829;BME280;45708;51.848;107.620;2024-01-27T22:05:04;96427.84;;;-22.87;66.00
59829;BME280;45708;51.848;107.620;2024-01-27T22:10:06;96436.22;;;-22.80;66.36
59829;BME280;45708;51.848;107.620;2024-01-27T22:15:07;96460.38;;;-22.87;65.99
59829;BME280;45708;51.848;107.620;2024-01-27T22:20:08;96444.34;;;-23.07;66.15
59829;BME280;45708;51.848;107.620;2024-01-27T22:25:09;96455.19;;;-23.08;66.55
59829;BME280;45708;51.848;107.620;2024-01-27T22:30:11;96465.16;;;-23.14;66.61
59829;BME280;45708;51.848;107.620;2024-01-27T22:35:18;96463.44;;;-23.18;66.24
59829;BME280;45708;51.848;107.620;2024-01-27T22:40:19;96470.97;;;-23.15;66.56
59829;BME280;45708;51.848;107.620;2024-01-27T22:45:19;96464.16;;;-23.28;66.29
59829;BME280;45708;51.848;107.620;2024-01-27T22:50:20;96481.66;;;-23.28;66.47
59829;BME280;45708;51.848;107.620;2024-01-27T22:55:21;96475.63;;;-23.49;66.44
59829;BME280;45708;51.848;107.620;2024-01-27T23:00:22;96501.41;;;-23.53;66.15
59829;BME280;45708;51.848;107.620;2024-01-27T23:05:22;96488.53;;;-23.88;66.06
59829;BME280;45708;51.848;107.620;2024-01-27T23:10:23;96492.28;;;-24.19;66.30
59829;BME280;45708;51.848;107.620;2024-01-27T23:15:24;96508.69;;;-24.39;65.82
59829;BME280;45708;51.848;107.620;2024-01-27T23:20:25;96519.88;;;-24.69;66.16
59829;BME280;45708;51.848;107.620;2024-01-27T23:25:26;96507.53;;;-25.12;65.81
59829;BME280;45708;51.848;107.620;2024-01-27T23:30:26;96524.94;;;-25.15;66.10
59829;BME280;45708;51.848;107.620;2024-01-27T23:35:27;96535.34;;;-25.38;65.93
59829;BME280;45708;51.848;107.620;2024-01-27T23:40:28;96530.63;;;-25.66;65.75
59829;BME280;45708;51.848;107.620;2024-01-27T23:45:29;96539.44;;;-25.83;65.71
59829;BME280;45708;51.848;107.620;2024-01-27T23:50:30;96548.09;;;-26.05;65.67
59829;BME280;45708;51.848;107.620;2024-01-27T23:55:31;96522.75;;;-26.27;65.71
